Time;durP1;ratioP1;P1;durP2;ratioP2;P2;SDS_P1;SDS_P2;PMS_P1;PMS_P2;Temp;Humidity;BMP_temperature;BMP_pressure;BME280_temperature;BME280_humidity;BME280_pressure;Samples;Min_cycle;Max_cycle;Signal;HPM_P1;HPM_P2
2023/06/29 00:00:21;;;;;;;34.63;21.80;;;18.70;99.90;;;;;;5105174;28;20146;-80
2023/06/29 00:02:48;;;;;;;35.90;21.60;;;18.70;99.90;;;;;;5106286;28;20051;-81
2023/06/29 00:05:14;;;;;;;31.25;21.80;;;18.70;99.90;;;;;;5070739;28;20051;-80
2023/06/29 00:07:40;;;;;;;32.15;22.10;;;18.70;99.90;;;;;;5106810;28;20084;-80
2023/06/29 00:10:08;;;;;;;32.08;21.63;;;18.70;99.90;;;;;;5089258;28;20044;-81
2023/06/29 00:12:34;;;;;;;33.63;21.65;;;18.70;99.90;;;;;;5112485;28;20074;-79
2023/06/29 00:14:59;;;;;;;32.42;22.27;;;18.60;99.90;;;;;;5111818;28;20116;-81
2023/06/29 00:17:25;;;;;;;37.50;22.20;;;18.70;99.90;;;;;;5090057;28;20393;-81
2023/06/29 00:19:51;;;;;;;29.88;22.30;;;18.70;99.90;;;;;;5106611;28;20524;-81
2023/06/29 00:22:18;;;;;;;31.65;22.95;;;18.70;99.90;;;;;;5087459;28;20043;-80
2023/06/29 00:24:44;;;;;;;30.88;22.02;;;18.70;99.90;;;;;;5089129;28;20047;-80
2023/06/29 00:27:15;;;;;;;32.13;21.33;;;18.70;99.90;;;;;;5103859;28;20050;-80
2023/06/29 00:29:42;;;;;;;34.75;22.42;;;18.70;99.90;;;;;;5105805;28;20055;-81
2023/06/29 00:32:11;;;;;;;34.25;23.15;;;18.60;99.90;;;;;;5105710;28;20073;-80
2023/06/29 00:34:37;;;;;;;33.08;21.23;;;18.60;99.90;;;;;;5104428;28;20035;-80
2023/06/29 00:37:04;;;;;;;37.63;22.02;;;18.60;99.90;;;;;;5072442;28;20147;-80
2023/06/29 00:39:30;;;;;;;39.53;24.25;;;18.60;99.90;;;;;;5104289;28;20053;-81
2023/06/29 00:41:56;;;;;;;30.85;21.30;;;18.60;99.90;;;;;;5107306;28;20376;-81
2023/06/29 00:44:22;;;;;;;34.35;22.58;;;18.60;99.90;;;;;;5110278;27;20048;-81
2023/06/29 00:46:50;;;;;;;30.65;21.38;;;18.60;99.90;;;;;;5108260;27;20047;-82
2023/06/29 00:49:18;;;;;;;35.03;24.20;;;17.90;99.90;;;;;;5108094;27;20043;-81
2023/06/29 00:51:47;;;;;;;34.45;22.92;;;18.70;99.90;;;;;;5090651;27;20043;-82
2023/06/29 00:54:13;;;;;;;37.58;24.30;;;18.60;99.90;;;;;;5111318;27;20482;-80
2023/06/29 00:56:41;;;;;;;33.97;23.30;;;18.60;99.90;;;;;;5092289;27;20130;-82
2023/06/29 00:59:07;;;;;;;30.35;21.00;;;18.60;99.90;;;;;;5092269;27;20039;-81
2023/06/29 01:01:33;;;;;;;34.38;23.25;;;18.70;99.90;;;;;;5073916;27;20087;-81
2023/06/29 01:03:59;;;;;;;33.92;23.00;;;18.60;99.90;;;;;;5090988;27;20058;-81
2023/06/29 01:06:31;;;;;;;36.75;21.70;;;18.60;99.90;;;;;;5108074;27;20057;-81
2023/06/29 01:09:04;;;;;;;32.47;22.43;;;18.60;99.90;;;;;;5107062;27;20076;-80
2023/06/29 01:11:35;;;;;;;36.92;23.83;;;18.60;99.90;;;;;;5092549;27;20281;-81
2023/06/29 01:14:05;;;;;;;31.85;22.48;;;18.60;99.90;;;;;;5090099;27;20049;-82
2023/06/29 01:16:32;;;;;;;38.17;21.65;;;18.60;99.90;;;;;;5091204;27;20039;-79
2023/06/29 01:19:09;;;;;;;34.25;21.58;;;18.60;99.90;;;;;;5073964;27;20039;-80
2023/06/29 01:21:51;;;;;;;38.08;22.88;;;18.60;99.90;;;;;;5107049;27;20044;-80
2023/06/29 01:24:18;;;;;;;34.05;22.83;;;18.60;99.90;;;;;;5091633;27;20043;-81
2023/06/29 01:26:44;;;;;;;34.15;23.42;;;18.50;99.90;;;;;;5106439;27;20039;-80
2023/06/29 01:29:10;;;;;;;35.33;23.60;;;18.60;99.90;;;;;;5090959;27;20054;-81
2023/06/29 01:31:35;;;;;;;34.90;23.48;;;18.60;99.90;;;;;;5090975;27;20897;-80
2023/06/29 01:34:01;;;;;;;33.38;21.00;;;18.60;99.90;;;;;;5090042;27;20086;-80
2023/06/29 01:36:33;;;;;;;34.03;22.95;;;18.60;99.90;;;;;;5090842;27;20043;-81
2023/06/29 01:39:09;;;;;;;35.92;22.27;;;18.60;99.90;;;;;;5106501;27;20134;-80
2023/06/29 01:41:39;;;;;;;31.45;21.92;;;18.60;99.90;;;;;;5091598;27;20047;-80
2023/06/29 01:44:08;;;;;;;31.67;22.38;;;18.60;99.90;;;;;;5107381;27;20039;-81
2023/06/29 01:46:34;;;;;;;35.97;21.48;;;18.60;99.90;;;;;;5076033;27;20043;-81
2023/06/29 01:49:01;;;;;;;32.30;22.45;;;18.60;99.90;;;;;;5109896;27;20528;-79
2023/06/29 01:51:27;;;;;;;33.55;23.08;;;18.60;99.90;;;;;;5111526;27;20046;-79
2023/06/29 01:53:53;;;;;;;35.80;23.42;;;18.60;99.90;;;;;;5078561;28;20160;-81
2023/06/29 01:56:19;;;;;;;35.55;23.73;;;18.60;99.90;;;;;;5089690;27;20484;-81
2023/06/29 01:58:44;;;;;;;34.70;23.33;;;18.60;99.90;;;;;;5107983;27;20043;-80
2023/06/29 02:01:10;;;;;;;34.85;21.67;;;18.60;99.90;;;;;;5106850;28;20130;-81
2023/06/29 02:03:36;;;;;;;28.45;20.02;;;18.60;99.90;;;;;;5107966;28;20043;-81
2023/06/29 02:06:01;;;;;;;30.73;21.42;;;18.60;99.90;;;;;;5092962;28;20068;-80
2023/06/29 02:08:27;;;;;;;39.35;21.90;;;18.60;99.90;;;;;;5106697;28;20114;-80
2023/06/29 02:10:53;;;;;;;29.27;20.95;;;18.60;99.90;;;;;;5107989;28;20193;-80
2023/06/29 02:13:18;;;;;;;33.22;23.10;;;18.60;99.90;;;;;;5124463;28;20051;-81
2023/06/29 02:15:44;;;;;;;37.15;22.98;;;18.60;99.90;;;;;;5108573;28;20039;-81
2023/06/29 02:18:10;;;;;;;32.28;21.35;;;18.60;99.90;;;;;;5106311;28;20509;-81
2023/06/29 02:20:35;;;;;;;31.15;21.90;;;18.60;99.90;;;;;;5107202;28;20058;-81
2023/06/29 02:23:01;;;;;;;38.90;24.80;;;18.60;99.90;;;;;;5073461;28;20108;-82
2023/06/29 02:25:27;;;;;;;34.35;22.05;;;18.60;99.90;;;;;;5090421;28;20036;-82
2023/06/29 02:27:52;;;;;;;32.75;22.77;;;18.60;99.90;;;;;;5107353;28;20493;-80
2023/06/29 02:30:18;;;;;;;33.03;22.85;;;18.60;99.90;;;;;;5089608;28;20043;-81
2023/06/29 02:32:44;;;;;;;38.67;23.83;;;18.60;99.90;;;;;;5107607;28;20165;-80
2023/06/29 02:35:09;;;;;;;36.13;22.20;;;18.60;99.90;;;;;;5105793;28;20430;-81
2023/06/29 02:37:35;;;;;;;38.67;23.73;;;18.60;99.90;;;;;;5090362;28;20058;-82
2023/06/29 02:40:01;;;;;;;32.17;22.88;;;18.60;99.90;;;;;;5106505;28;20085;-82
2023/06/29 02:42:28;;;;;;;35.15;23.10;;;18.60;99.90;;;;;;5072625;28;20069;-82
2023/06/29 02:44:53;;;;;;;34.03;22.92;;;18.60;99.90;;;;;;5107255;28;20375;-82
2023/06/29 02:47:19;;;;;;;29.30;21.73;;;18.50;99.90;;;;;;5072601;28;20104;-82
2023/06/29 02:49:45;;;;;;;33.78;22.48;;;18.60;99.90;;;;;;5092608;27;20371;-82
2023/06/29 02:52:10;;;;;;;38.90;22.75;;;18.60;99.90;;;;;;5092795;27;20429;-82
2023/06/29 02:54:36;;;;;;;33.40;23.00;;;18.60;99.90;;;;;;5111347;27;20126;-81
2023/06/29 02:57:02;;;;;;;40.13;22.90;;;18.60;99.90;;;;;;5110264;27;20050;-82
2023/06/29 02:59:28;;;;;;;42.25;23.35;;;18.60;99.90;;;;;;5110316;27;20430;-81
2023/06/29 03:01:53;;;;;;;32.50;22.20;;;18.60;99.90;;;;;;5093512;27;20474;-82
2023/06/29 03:04:19;;;;;;;37.65;23.13;;;18.60;99.90;;;;;;5128104;27;20058;-82
2023/06/29 03:06:45;;;;;;;32.20;22.25;;;18.60;99.90;;;;;;5111556;27;20046;-82
2023/06/29 03:09:10;;;;;;;32.35;22.63;;;18.60;99.90;;;;;;5127940;27;20047;-81
2023/06/29 03:11:36;;;;;;;34.47;21.77;;;18.60;99.90;;;;;;5110715;27;20039;-82
2023/06/29 03:14:02;;;;;;;36.97;23.38;;;18.60;99.90;;;;;;5130125;27;20107;-82
2023/06/29 03:16:27;;;;;;;31.90;20.92;;;18.60;99.90;;;;;;5112046;27;20074;-82
2023/06/29 03:18:53;;;;;;;33.83;20.70;;;18.60;99.90;;;;;;5118180;27;20050;-81
2023/06/29 03:21:19;;;;;;;33.05;23.00;;;18.60;99.90;;;;;;5101092;27;20085;-79
2023/06/29 03:23:46;;;;;;;35.42;21.98;;;18.60;99.90;;;;;;5113111;27;20050;-82
2023/06/29 03:26:13;;;;;;;31.23;21.13;;;18.60;99.90;;;;;;5109952;27;20051;-81
2023/06/29 03:28:38;;;;;;;27.42;20.02;;;18.60;99.90;;;;;;5129949;27;20035;-81
2023/06/29 03:31:04;;;;;;;38.30;21.25;;;18.60;99.90;;;;;;5109256;27;20398;-82
2023/06/29 03:33:30;;;;;;;28.45;19.10;;;18.60;99.90;;;;;;5109973;27;20039;-82
2023/06/29 03:35:56;;;;;;;31.10;21.15;;;18.60;99.90;;;;;;5092625;27;20505;-81
2023/06/29 03:38:22;;;;;;;29.13;19.35;;;18.60;99.90;;;;;;5092482;27;20058;-82
2023/06/29 03:40:48;;;;;;;36.53;20.73;;;18.70;99.90;;;;;;5093530;27;20823;-81
2023/06/29 03:43:13;;;;;;;30.15;19.65;;;18.70;99.90;;;;;;5127039;27;20038;-81
2023/06/29 03:45:39;;;;;;;29.13;18.45;;;18.70;99.90;;;;;;5128306;27;20077;-82
2023/06/29 03:48:05;;;;;;;32.00;20.25;;;18.70;99.90;;;;;;5108643;27;20043;-81
2023/06/29 03:50:31;;;;;;;31.35;19.08;;;18.70;99.90;;;;;;5109341;27;20046;-82
2023/06/29 03:52:56;;;;;;;27.33;19.20;;;18.70;99.90;;;;;;5092046;27;20054;-81
2023/06/29 03:55:24;;;;;;;25.95;18.65;;;18.70;99.90;;;;;;5127173;27;20080;-81
2023/06/29 03:57:50;;;;;;;22.55;17.60;;;18.70;99.90;;;;;;5128492;27;20051;-80
2023/06/29 04:00:16;;;;;;;25.35;17.38;;;18.80;99.90;;;;;;5074240;27;20564;-81
2023/06/29 04:02:42;;;;;;;27.25;17.60;;;18.80;99.90;;;;;;5092293;27;20039;-81
2023/06/29 04:05:09;;;;;;;33.85;19.33;;;18.80;99.90;;;;;;5108346;27;20146;-81
2023/06/29 04:07:35;;;;;;;29.13;18.15;;;18.70;99.90;;;;;;5109217;27;20039;-81
2023/06/29 04:10:01;;;;;;;34.40;18.55;;;18.80;99.90;;;;;;5091516;27;20049;-81
2023/06/29 04:12:27;;;;;;;31.58;18.40;;;18.80;99.90;;;;;;5127185;27;20114;-81
2023/06/29 04:14:53;;;;;;;27.55;17.75;;;18.80;99.90;;;;;;5109062;27;20531;-80
2023/06/29 04:17:18;;;;;;;27.33;19.10;;;18.80;99.90;;;;;;5125865;27;20045;-81
2023/06/29 04:19:44;;;;;;;32.10;18.45;;;18.80;99.90;;;;;;5092513;27;20074;-80
2023/06/29 04:22:10;;;;;;;29.38;18.90;;;18.80;99.90;;;;;;5108792;27;20046;-81
2023/06/29 04:24:35;;;;;;;24.63;17.88;;;18.80;99.90;;;;;;5108931;27;20047;-81
2023/06/29 04:27:01;;;;;;;29.38;19.17;;;18.80;99.90;;;;;;5108683;27;20093;-81
2023/06/29 04:29:27;;;;;;;29.85;18.40;;;18.90;99.90;;;;;;5108512;27;20039;-80
2023/06/29 04:31:54;;;;;;;31.73;17.73;;;18.90;99.90;;;;;;5109606;27;20088;-81
2023/06/29 04:34:21;;;;;;;23.90;16.98;;;18.90;99.90;;;;;;5126238;27;20062;-81
2023/06/29 04:36:46;;;;;;;26.40;18.48;;;18.90;99.90;;;;;;5109489;27;20047;-81
2023/06/29 04:39:15;;;;;;;27.27;18.35;;;18.90;99.90;;;;;;5127076;27;20050;-82
2023/06/29 04:41:41;;;;;;;27.65;17.27;;;19.00;99.90;;;;;;5127134;27;20039;-81
2023/06/29 04:44:08;;;;;;;25.10;16.90;;;19.00;99.90;;;;;;5090943;27;20043;-82
2023/06/29 04:46:40;;;;;;;29.73;16.85;;;19.00;99.90;;;;;;5107937;27;20043;-81
2023/06/29 04:49:06;;;;;;;26.05;16.67;;;19.00;99.90;;;;;;5109771;27;20047;-81
2023/06/29 04:51:36;;;;;;;27.50;16.23;;;19.10;99.90;;;;;;5095374;27;20050;-81
2023/06/29 04:54:05;;;;;;;21.33;16.33;;;19.20;99.90;;;;;;5098431;27;20035;-80
2023/06/29 04:56:31;;;;;;;25.33;16.20;;;19.30;99.90;;;;;;5111035;27;20516;-82
2023/06/29 04:58:57;;;;;;;27.23;17.38;;;19.30;99.90;;;;;;5091619;27;20043;-84
2023/06/29 05:01:22;;;;;;;24.75;15.95;;;19.40;99.90;;;;;;5091861;27;20035;-82
2023/06/29 05:03:48;;;;;;;28.13;16.33;;;19.50;99.90;;;;;;5107227;27;20062;-82
2023/06/29 05:06:14;;;;;;;24.98;16.98;;;19.50;99.90;;;;;;5091711;27;20074;-81
2023/06/29 05:08:40;;;;;;;26.75;16.85;;;19.50;99.90;;;;;;5107535;27;20054;-82
2023/06/29 05:11:06;;;;;;;24.15;16.65;;;19.60;99.90;;;;;;5092018;27;20046;-82
2023/06/29 05:13:35;;;;;;;21.50;15.98;;;19.60;99.90;;;;;;5107473;27;20039;-81
2023/06/29 05:16:02;;;;;;;23.58;15.10;;;19.60;99.90;;;;;;5091865;27;20387;-82
2023/06/29 05:18:28;;;;;;;22.58;15.18;;;19.60;99.90;;;;;;5090784;27;20130;-82
2023/06/29 05:20:53;;;;;;;24.15;15.65;;;19.60;99.90;;;;;;5107305;27;20078;-82
2023/06/29 05:23:19;;;;;;;21.52;15.27;;;19.30;99.90;;;;;;5092156;27;20059;-82
2023/06/29 05:25:45;;;;;;;24.38;16.30;;;19.60;99.90;;;;;;5106803;27;20035;-83
2023/06/29 05:28:11;;;;;;;19.95;14.43;;;19.60;99.90;;;;;;5108312;27;20050;-82
2023/06/29 05:30:37;;;;;;;21.85;15.50;;;19.60;99.90;;;;;;5107811;27;20031;-82
2023/06/29 05:33:04;;;;;;;23.60;14.95;;;19.60;99.90;;;;;;5073584;27;20039;-81
2023/06/29 05:35:31;;;;;;;21.85;15.52;;;19.60;99.90;;;;;;5107454;27;20485;-81
2023/06/29 05:37:58;;;;;;;24.83;15.57;;;19.60;99.90;;;;;;5072895;27;20047;-84
2023/06/29 05:40:23;;;;;;;24.50;15.02;;;19.70;99.90;;;;;;5108206;27;20096;-81
2023/06/29 05:42:49;;;;;;;20.50;14.68;;;19.70;99.90;;;;;;5106253;27;20522;-81
2023/06/29 05:45:15;;;;;;;20.20;15.13;;;19.80;99.90;;;;;;5090942;27;20130;-82
2023/06/29 05:47:41;;;;;;;22.60;15.35;;;19.80;99.90;;;;;;5107252;27;20050;-82
2023/06/29 05:50:07;;;;;;;20.05;14.98;;;19.90;99.90;;;;;;5107044;27;20172;-82
2023/06/29 05:52:37;;;;;;;19.38;15.27;;;20.00;99.90;;;;;;5107015;28;20079;-81
2023/06/29 05:55:03;;;;;;;19.38;14.15;;;20.00;99.90;;;;;;5089270;27;20528;-82
2023/06/29 05:57:29;;;;;;;18.80;14.48;;;20.00;99.90;;;;;;5107748;27;20050;-82
2023/06/29 05:59:55;;;;;;;24.20;14.88;;;20.10;99.90;;;;;;5088987;27;20047;-82
2023/06/29 06:02:21;;;;;;;23.60;13.55;;;20.10;99.90;;;;;;5074428;27;20073;-82
2023/06/29 06:04:47;;;;;;;21.63;14.20;;;20.10;99.90;;;;;;5106458;28;20046;-82
2023/06/29 06:07:29;;;;;;;25.02;14.30;;;20.20;99.90;;;;;;5089917;27;20039;-81
2023/06/29 06:09:56;;;;;;;19.85;13.77;;;20.20;99.90;;;;;;5091131;28;20680;-81
2023/06/29 06:12:22;;;;;;;23.40;13.57;;;20.40;99.90;;;;;;5088772;28;20057;-81
2023/06/29 06:14:48;;;;;;;21.70;14.65;;;20.50;99.90;;;;;;5126265;28;20067;-80
2023/06/29 06:17:14;;;;;;;22.20;14.27;;;20.60;99.90;;;;;;5106011;28;20039;-81
2023/06/29 06:19:40;;;;;;;18.73;14.18;;;20.70;99.90;;;;;;5107114;28;20070;-81
2023/06/29 06:22:05;;;;;;;22.58;13.93;;;20.80;99.90;;;;;;5106675;28;20043;-81
2023/06/29 06:24:31;;;;;;;21.70;13.40;;;20.80;99.90;;;;;;5092347;27;20039;-81
2023/06/29 06:26:57;;;;;;;23.30;14.80;;;20.80;99.90;;;;;;5099052;27;20103;-80
2023/06/29 06:29:22;;;;;;;20.00;13.20;;;20.80;99.90;;;;;;5113759;27;20047;-80
2023/06/29 06:31:48;;;;;;;20.17;13.48;;;20.80;99.90;;;;;;5079426;27;20126;-81
2023/06/29 06:34:14;;;;;;;20.33;13.75;;;20.80;99.90;;;;;;5110687;27;20375;-81
2023/06/29 06:36:40;;;;;;;21.73;14.35;;;20.80;99.90;;;;;;5094856;27;20050;-81
2023/06/29 06:39:06;;;;;;;23.17;13.80;;;20.80;99.90;;;;;;5093988;27;20133;-81
2023/06/29 06:41:31;;;;;;;21.95;14.68;;;20.80;99.90;;;;;;5094255;27;21175;-81
2023/06/29 06:43:57;;;;;;;18.27;14.20;;;20.80;99.90;;;;;;5093739;27;20477;-81
2023/06/29 06:46:23;;;;;;;17.73;14.38;;;20.80;99.90;;;;;;5092917;27;20051;-81
2023/06/29 06:48:49;;;;;;;20.83;13.75;;;20.80;99.90;;;;;;5094348;27;20175;-82
2023/06/29 06:51:15;;;;;;;18.65;13.38;;;20.80;99.90;;;;;;5128173;27;20054;-82
2023/06/29 06:53:40;;;;;;;23.17;15.40;;;20.80;99.90;;;;;;5111512;27;20031;-82
2023/06/29 06:56:06;;;;;;;26.48;14.57;;;20.80;99.90;;;;;;5093469;27;20043;-82
2023/06/29 06:58:32;;;;;;;25.20;15.07;;;20.90;99.90;;;;;;5093284;27;20126;-81
2023/06/29 07:00:58;;;;;;;23.15;15.02;;;20.90;99.90;;;;;;5093688;27;20500;-82
2023/06/29 07:03:25;;;;;;;24.33;14.20;;;21.20;99.90;;;;;;5109890;27;20130;-82
2023/06/29 07:05:53;;;;;;;22.52;14.65;;;21.00;99.90;;;;;;5111456;27;20088;-82
2023/06/29 07:08:19;;;;;;;20.83;14.40;;;21.00;99.90;;;;;;5109175;27;20720;-82
2023/06/29 07:10:45;;;;;;;23.95;14.30;;;21.00;99.90;;;;;;5094173;27;20060;-84
2023/06/29 07:13:11;;;;;;;19.30;12.82;;;21.10;99.90;;;;;;5075830;27;20091;-84
2023/06/29 07:15:37;;;;;;;23.60;14.07;;;21.10;99.90;;;;;;5092999;27;20035;-83
2023/06/29 07:18:03;;;;;;;21.60;13.68;;;21.10;99.90;;;;;;5092829;27;20047;-83
2023/06/29 07:20:28;;;;;;;19.90;13.77;;;21.20;99.90;;;;;;5109080;27;20089;-83
2023/06/29 07:22:54;;;;;;;20.45;13.98;;;21.20;99.90;;;;;;5077161;27;20039;-82
2023/06/29 07:25:21;;;;;;;18.92;13.88;;;21.20;99.90;;;;;;5091591;27;20099;-82
2023/06/29 07:27:46;;;;;;;21.48;14.27;;;21.20;99.90;;;;;;5110496;27;20090;-83
2023/06/29 07:30:13;;;;;;;22.42;14.73;;;21.20;99.90;;;;;;5092270;27;20203;-81
2023/06/29 07:32:38;;;;;;;19.27;13.23;;;21.20;99.90;;;;;;5109788;27;20054;-82
2023/06/29 07:35:05;;;;;;;20.60;13.35;;;21.20;99.90;;;;;;5092586;27;20043;-82
2023/06/29 07:37:31;;;;;;;21.98;13.93;;;21.20;99.90;;;;;;5075600;27;20054;-82
2023/06/29 07:39:57;;;;;;;25.25;14.23;;;21.20;99.90;;;;;;5110412;27;20047;-81
2023/06/29 07:42:23;;;;;;;22.30;14.13;;;21.10;99.90;;;;;;5108569;27;20405;-85
2023/06/29 07:44:48;;;;;;;19.83;13.63;;;21.10;99.90;;;;;;5093208;27;20142;-82
2023/06/29 07:47:14;;;;;;;22.25;13.82;;;21.20;99.90;;;;;;5091912;27;20034;-82
2023/06/29 07:49:40;;;;;;;20.95;14.55;;;21.10;99.90;;;;;;5075639;27;20424;-83
2023/06/29 07:52:06;;;;;;;19.63;14.85;;;21.10;99.90;;;;;;5075661;27;20611;-82
2023/06/29 07:54:31;;;;;;;20.73;12.70;;;21.10;99.90;;;;;;5092653;27;20085;-82
2023/06/29 07:56:57;;;;;;;22.55;14.82;;;21.00;99.90;;;;;;5095204;27;20078;-82
2023/06/29 07:59:23;;;;;;;21.85;14.65;;;21.00;99.90;;;;;;5097142;27;20481;-81
2023/06/29 08:01:49;;;;;;;20.27;15.88;;;21.00;99.90;;;;;;5096636;27;20047;-81
2023/06/29 08:04:15;;;;;;;24.60;14.70;;;21.00;99.90;;;;;;5075649;27;20482;-81
2023/06/29 08:06:43;;;;;;;21.55;14.68;;;21.00;99.90;;;;;;5127947;27;20440;-84
2023/06/29 08:09:11;;;;;;;22.23;14.18;;;21.00;99.90;;;;;;5109067;27;20114;-82
2023/06/29 08:11:37;;;;;;;24.83;15.88;;;20.90;99.90;;;;;;5127081;27;20449;-81
2023/06/29 08:14:04;;;;;;;23.67;16.13;;;21.00;99.90;;;;;;5092528;27;20402;-82
2023/06/29 08:16:29;;;;;;;22.00;14.95;;;20.90;99.90;;;;;;5090668;27;20047;-83
2023/06/29 08:18:55;;;;;;;21.50;15.43;;;21.00;99.90;;;;;;5109587;27;20507;-83
2023/06/29 08:21:21;;;;;;;26.42;16.58;;;21.00;99.90;;;;;;5107824;27;20054;-82
2023/06/29 08:23:49;;;;;;;22.75;15.40;;;21.00;99.90;;;;;;5091873;27;20047;-83
2023/06/29 08:26:15;;;;;;;25.42;15.70;;;21.10;99.90;;;;;;5108390;27;20505;-83
2023/06/29 08:28:41;;;;;;;29.70;16.98;;;21.10;99.90;;;;;;5108366;27;20125;-83
2023/06/29 08:31:06;;;;;;;24.77;15.93;;;21.10;99.90;;;;;;5127275;27;20189;-84
2023/06/29 08:33:32;;;;;;;26.85;16.55;;;21.20;99.90;;;;;;5090708;27;20035;-82
2023/06/29 08:35:58;;;;;;;26.02;16.30;;;21.30;99.90;;;;;;5128189;27;20058;-81
2023/06/29 08:38:24;;;;;;;23.38;15.80;;;21.40;99.90;;;;;;5107706;27;20127;-82
2023/06/29 08:40:50;;;;;;;20.23;15.35;;;21.50;99.90;;;;;;5127475;27;20078;-82
2023/06/29 08:43:17;;;;;;;23.85;16.05;;;21.60;99.90;;;;;;5108493;27;20047;-83
2023/06/29 08:45:47;;;;;;;24.70;14.88;;;21.70;99.90;;;;;;5107508;27;20056;-82
2023/06/29 08:48:18;;;;;;;20.40;14.75;;;21.70;99.90;;;;;;5126103;27;20115;-82
2023/06/29 08:50:52;;;;;;;23.55;15.35;;;21.80;99.90;;;;;;5125662;27;20051;-82
2023/06/29 08:53:18;;;;;;;23.98;15.32;;;21.90;99.90;;;;;;5109239;27;20116;-82
2023/06/29 08:55:44;;;;;;;23.88;15.30;;;21.90;99.90;;;;;;5125649;27;20035;-82
2023/06/29 08:58:10;;;;;;;23.50;15.23;;;22.00;99.90;;;;;;5126538;27;20155;-83
2023/06/29 09:00:37;;;;;;;23.13;15.80;;;22.10;99.90;;;;;;5091267;27;20070;-82
2023/06/29 09:03:03;;;;;;;23.02;14.82;;;22.10;99.90;;;;;;5073810;27;20043;-82
2023/06/29 09:05:30;;;;;;;24.80;16.10;;;22.10;99.90;;;;;;5091617;27;20082;-82
2023/06/29 09:07:56;;;;;;;23.63;16.33;;;22.20;99.90;;;;;;5107105;27;20039;-82
2023/06/29 09:10:22;;;;;;;24.25;14.80;;;22.20;99.90;;;;;;5127760;27;20066;-83
2023/06/29 09:12:50;;;;;;;23.90;15.88;;;22.20;99.90;;;;;;5106689;27;20435;-81
2023/06/29 09:15:16;;;;;;;22.10;15.32;;;22.20;99.90;;;;;;5108416;27;20394;-82
2023/06/29 09:17:46;;;;;;;25.20;15.52;;;22.10;99.90;;;;;;5108207;27;20040;-81
2023/06/29 09:20:15;;;;;;;23.30;16.23;;;22.10;99.90;;;;;;5090009;27;20047;-82
2023/06/29 09:22:42;;;;;;;23.42;15.52;;;22.10;99.90;;;;;;5108449;27;20063;-82
2023/06/29 09:25:10;;;;;;;24.02;15.65;;;22.10;99.90;;;;;;5106729;27;20047;-81
2023/06/29 09:27:35;;;;;;;22.35;14.80;;;22.20;99.90;;;;;;5092272;27;20046;-82
2023/06/29 09:30:04;;;;;;;20.13;15.77;;;22.20;99.90;;;;;;5106989;27;20051;-81
2023/06/29 09:32:30;;;;;;;24.30;17.10;;;22.20;99.90;;;;;;5113182;27;20459;-80
2023/06/29 09:35:05;;;;;;;24.50;15.68;;;22.30;99.90;;;;;;5115164;27;20072;-80
2023/06/29 09:37:31;;;;;;;25.75;15.95;;;22.40;99.90;;;;;;5092625;27;20058;-81
2023/06/29 09:39:57;;;;;;;23.15;16.40;;;22.50;99.90;;;;;;5092573;27;20482;-81
2023/06/29 09:42:30;;;;;;;25.50;17.42;;;22.50;99.90;;;;;;5107611;27;20438;-83
2023/06/29 09:45:02;;;;;;;27.15;16.73;;;22.50;99.90;;;;;;5087973;28;20144;-82
2023/06/29 09:47:28;;;;;;;26.63;17.33;;;21.80;99.90;;;;;;5087029;28;20126;-83
2023/06/29 09:49:54;;;;;;;26.58;16.38;;;22.40;99.90;;;;;;5086710;28;20062;-82
2023/06/29 09:52:21;;;;;;;23.38;16.67;;;22.40;99.90;;;;;;5104067;28;20048;-83
2023/06/29 09:54:49;;;;;;;27.55;18.05;;;22.30;99.90;;;;;;5085665;28;20086;-82
2023/06/29 09:57:15;;;;;;;23.27;17.73;;;22.30;99.90;;;;;;5105345;28;20051;-82
2023/06/29 09:59:44;;;;;;;24.30;16.52;;;22.20;99.90;;;;;;5084826;28;20134;-83
2023/06/29 10:02:11;;;;;;;25.50;16.17;;;22.20;99.90;;;;;;5087472;28;20043;-83
2023/06/29 10:04:39;;;;;;;24.08;17.02;;;22.10;99.90;;;;;;5086435;28;20520;-82
2023/06/29 10:07:06;;;;;;;22.63;16.98;;;22.10;99.90;;;;;;5069626;28;20043;-82
2023/06/29 10:09:39;;;;;;;29.80;17.38;;;22.10;99.90;;;;;;5086989;28;20044;-82
2023/06/29 10:12:09;;;;;;;24.25;16.67;;;22.10;99.90;;;;;;5086087;28;20610;-82
2023/06/29 10:14:37;;;;;;;28.00;17.77;;;22.20;99.90;;;;;;5105464;28;20491;-82
2023/06/29 10:17:08;;;;;;;24.27;17.42;;;22.90;99.90;;;;;;5086803;28;20032;-82
2023/06/29 10:19:36;;;;;;;22.63;16.55;;;22.10;99.90;;;;;;5104585;28;20471;-83
2023/06/29 10:22:10;;;;;;;22.92;16.63;;;22.10;99.90;;;;;;5071060;28;20071;-82
2023/06/29 10:25:04;;;;;;;22.70;17.08;;;22.10;99.90;;;;;;5086304;28;20043;-82
2023/06/29 10:27:32;;;;;;;22.08;16.10;;;22.00;99.90;;;;;;5100510;28;20051;-83
2023/06/29 10:30:03;;;;;;;20.88;15.82;;;21.90;99.90;;;;;;5086584;28;20032;-83
2023/06/29 10:32:32;;;;;;;26.35;17.17;;;21.90;99.90;;;;;;5086466;28;20039;-82
2023/06/29 10:35:01;;;;;;;25.90;16.30;;;21.80;99.90;;;;;;5087183;28;20040;-82
2023/06/29 10:37:52;;;;;;;24.35;16.88;;;21.80;99.90;;;;;;5102604;28;20073;-84
2023/06/29 10:40:20;;;;;;;23.17;16.67;;;21.70;99.90;;;;;;5104256;28;20474;-82
2023/06/29 10:42:46;;;;;;;25.13;16.98;;;21.60;99.90;;;;;;5103570;28;20051;-81
2023/06/29 10:45:17;;;;;;;24.10;17.50;;;21.50;99.90;;;;;;5103604;28;20451;-81
2023/06/29 10:47:44;;;;;;;25.70;18.23;;;21.40;99.90;;;;;;5103623;28;20048;-81
2023/06/29 10:50:13;;;;;;;26.85;18.60;;;21.30;99.90;;;;;;5102554;28;20059;-81
2023/06/29 10:52:42;;;;;;;26.70;17.42;;;21.20;99.90;;;;;;5103702;28;20054;-82
2023/06/29 10:55:18;;;;;;;24.40;17.95;;;21.10;99.90;;;;;;5068717;28;20122;-81
2023/06/29 10:57:46;;;;;;;26.58;19.35;;;21.00;99.90;;;;;;5104187;28;20055;-81
2023/06/29 11:00:13;;;;;;;30.73;20.42;;;21.00;99.90;;;;;;5102614;28;20568;-82
2023/06/29 11:02:40;;;;;;;28.08;19.80;;;20.90;99.90;;;;;;5069631;28;20051;-82
2023/06/29 11:05:06;;;;;;;26.17;19.45;;;20.90;99.90;;;;;;5087245;28;20076;-80
2023/06/29 11:07:33;;;;;;;25.42;18.77;;;21.00;99.90;;;;;;5091230;28;20099;-80
2023/06/29 11:10:00;;;;;;;25.40;18.23;;;21.00;99.90;;;;;;5113281;28;20590;-82
2023/06/29 11:12:26;;;;;;;26.25;18.17;;;21.10;99.90;;;;;;5102962;28;20040;-81
2023/06/29 11:14:55;;;;;;;27.63;18.70;;;21.30;99.90;;;;;;5100434;28;20039;-83
2023/06/29 11:17:22;;;;;;;24.67;17.38;;;21.40;99.90;;;;;;5090234;28;20051;-83
2023/06/29 11:19:49;;;;;;;25.45;17.80;;;21.60;99.90;;;;;;5107403;28;20093;-83
2023/06/29 11:22:19;;;;;;;23.88;17.98;;;21.70;99.90;;;;;;5107261;28;20397;-82
2023/06/29 11:24:45;;;;;;;23.02;17.58;;;21.70;99.90;;;;;;5088789;28;20135;-84
2023/06/29 11:27:14;;;;;;;24.30;17.73;;;21.80;99.90;;;;;;5074372;28;20050;-83
2023/06/29 11:29:40;;;;;;;24.88;17.35;;;21.90;99.90;;;;;;5105659;28;20047;-81
2023/06/29 11:32:11;;;;;;;22.70;18.08;;;22.00;99.90;;;;;;5106619;28;20141;-82
2023/06/29 11:34:37;;;;;;;25.48;17.95;;;22.00;99.90;;;;;;5089290;28;20039;-83
2023/06/29 11:37:03;;;;;;;24.35;16.35;;;22.00;99.90;;;;;;5072528;28;20100;-85
2023/06/29 11:39:30;;;;;;;25.27;17.63;;;22.00;99.90;;;;;;5106719;28;20494;-82
2023/06/29 11:41:57;;;;;;;23.75;17.75;;;22.00;99.90;;;;;;5055546;28;20092;-82
2023/06/29 11:44:23;;;;;;;27.70;17.52;;;22.00;99.90;;;;;;5113244;27;20111;-82
2023/06/29 11:46:49;;;;;;;23.98;17.38;;;22.00;99.90;;;;;;5108764;27;20051;-83
2023/06/29 11:49:18;;;;;;;25.50;17.08;;;21.80;99.90;;;;;;5128206;27;20083;-82
2023/06/29 11:51:44;;;;;;;22.85;16.38;;;21.80;99.90;;;;;;5109341;27;20510;-82
2023/06/29 11:54:10;;;;;;;24.95;17.00;;;21.80;99.90;;;;;;5108130;27;20051;-83
2023/06/29 11:56:41;;;;;;;24.40;17.63;;;22.00;99.90;;;;;;5128268;27;20447;-82
2023/06/29 11:59:16;;;;;;;22.92;17.67;;;22.20;99.90;;;;;;5107657;27;20098;-82
2023/06/29 12:01:46;;;;;;;31.25;18.23;;;22.40;99.90;;;;;;5109652;27;20058;-82
2023/06/29 12:04:15;;;;;;;25.67;18.88;;;22.60;99.90;;;;;;5091816;27;20047;-83
2023/06/29 12:06:56;;;;;;;29.92;20.50;;;22.80;99.90;;;;;;5092217;27;20050;-83
2023/06/29 12:09:29;;;;;;;25.80;19.48;;;22.90;99.90;;;;;;5075949;27;20062;-83
2023/06/29 12:11:59;;;;;;;28.40;22.00;;;22.90;99.90;;;;;;5127316;27;21112;-83
2023/06/29 12:14:43;;;;;;;23.83;18.27;;;21.90;99.90;;;;;;5093223;27;20039;-83
2023/06/29 12:17:19;;;;;;;27.90;21.38;;;22.80;99.90;;;;;;5074993;27;20050;-82
2023/06/29 12:19:51;;;;;;;27.95;20.90;;;22.80;99.90;;;;;;5074530;27;20355;-83
2023/06/29 12:22:16;;;;;;;32.58;20.77;;;22.80;99.90;;;;;;5091724;27;20047;-82
2023/06/29 12:24:49;;;;;;;28.70;20.33;;;22.90;99.90;;;;;;5107500;27;20390;-82
2023/06/29 12:27:15;;;;;;;;;;;22.90;99.90;;;;;;5076499;27;20047;-82